Mason Valley Wildlife Refuge, Nevada Weather observations

Data are for 10 minute period ending at time listed.
 Day   Time   Solar   Ave.   Ave.  Ave.  Vector  Max.   Baro.   Total    
  of    of     Rad.   Air    Rel.  Wind   Wind   Wind  Press.  Precip.   
Year   Day            Temp.  Hum.  Speed  Dir.   Gust                    
2017   (PST)  Kw/m2    F      %     mph   deg.    mph    mb.     in.     
-------------------------------------------------------------------------
 322    3:50   0.00   20.0    93    0.8   242     2.0   876.3    0.00 
 322    4:00   0.00   18.8    93    0.1   240     0.9   876.3    0.00 
 322    4:10   0.00   18.4    93    0.0   240     0.8   876.3    0.00 
 322    4:20   0.00   18.6    94    0.0     0     0.0   876.3    0.00 
 322    4:30   0.00   18.1    94    0.6   200     2.7   876.3    0.00 
 322    4:40   0.00   18.8    94    2.0   200     2.7   876.3    0.00 
 322    4:50   0.00   17.5    92    0.6   267     2.0   876.4    0.00 
 322    5:00   0.00   16.9    93    0.0     0     0.0   876.4    0.00 
 322    5:10   0.00   17.0    94    0.0     0     0.0   876.4    0.00 
 322    5:20   0.00   16.2    93    0.0   354     0.5   876.4    0.00 
 322    5:30   0.00   17.0    94    1.0   353     1.8   876.5    0.00 
 322    5:40   0.00   18.5    94    3.0   179     3.9   876.6    0.00 
 322    5:50   0.00   16.8    93    1.0   119     3.3   876.6    0.00 
 322    6:00   0.00   16.7    94    0.2   123     1.2   876.6    0.00 
 322    6:10   0.00   16.3    94    1.2   129     2.5   876.6    0.00 
 322    6:20   0.00   15.1    93    1.6    86     5.3   876.7    0.00 
 322    6:30   0.00   15.8    94    1.9   123     5.8   876.7    0.00 
 322    6:40   0.00   16.0    93    0.4    75     3.2   876.8    0.00 
 322    6:50   0.01   16.1    93    0.4    52     2.3   876.8    0.00 
 322    7:00   0.02   15.5    92    0.8    71     2.0   876.9    0.00 
 322    7:10   0.04   17.3    93    0.3   204     1.7   877.0    0.00 
 322    7:20   0.06   18.3    92    0.2    69     2.1   877.1    0.00 
 322    7:30   0.08   20.8    91    0.4    88     2.0   877.1    0.00 
 322    7:40   0.09   23.2    90    0.1   110     0.9   877.1    0.00 
 322    7:50   0.10   26.1    88    0.1   110     0.8   877.1    0.00 
 322    8:00   0.13   27.6    86    0.5   163     2.0   877.2    0.00 
 322    8:10   0.14   28.4    85    1.1   173     2.2   877.2    0.00 
 322    8:20   0.16   28.9    85    1.5   178     2.3   877.3    0.00 
 322    8:30   0.17   30.1    84    1.2   160     2.2   877.2    0.00 
 322    8:40   0.19   30.9    81    1.5   152     2.4   876.9    0.00 
 322    8:50   0.21   31.7    79    1.5   153     2.6   876.8    0.00 
 322    9:00   0.27   32.4    76    1.7   143     3.4   876.8    0.00 
 322    9:10   0.30   33.1    76    1.7   169     4.1   876.9    0.00 
 322    9:20   0.32   34.0    74    1.1   190     2.5   876.8    0.00 
 322    9:30   0.34   34.6    71    1.2   135     2.9   876.8    0.00 
 322    9:40   0.36   35.9    68    1.0   107     3.1   876.8    0.00 
 322    9:50   0.37   35.8    68    1.5   118     3.7   876.9    0.00 
 322   10:00   0.38   36.7    67    0.2    88     2.3   876.8    0.00 
 322   10:10   0.40   38.6    62    0.7   290     2.3   876.9    0.00 
 322   10:20   0.41   39.1    62    1.0   167     3.3   876.9    0.00 
 322   10:30   0.42   39.2    61    1.5   153     4.1   876.9    0.00 
 322   10:40   0.43   38.7    60    1.5    80     4.1   876.8    0.00 
 322   10:50   0.44   39.5    58    2.1    96     6.0   876.8    0.00 
 322   11:00   0.45   39.2    59    1.5   190     3.9   876.8    0.00 
 322   11:10   0.46   40.5    57    1.0   318     3.9   876.7    0.00 
 322   11:20   0.46   40.1    55    3.1   157     5.7   876.5    0.00 
 322   11:30   0.47   40.0    56    3.4   140     6.7   876.5    0.00 
 322   11:40   0.47   40.2    55    2.4    50     6.0   876.3    0.00 
 322   11:50   0.47   40.9    54    2.9   100     5.7   876.1    0.00 
 322   12:00   0.47   41.4    51    2.4   134     4.7   875.9    0.00 
 322   12:10   0.47   41.6    50    2.4    90     5.9   875.8    0.00 
 322   12:20   0.47   42.1    48    2.7    67     7.5   875.7    0.00 
 322   12:30   0.47   42.1    48    2.5    87     6.4   875.5    0.00 
 322   12:40   0.46   43.0    47    2.5   104     4.7   875.4    0.00 
 322   12:50   0.46   43.7    45    1.5   121     4.8   875.2    0.00 
 322   13:00   0.45   43.6    44    2.6   116     7.2   875.1    0.00 
 322   13:10   0.44   44.5    44    2.3    65     6.1   875.1    0.00 
 322   13:20   0.43   43.9    44    3.3    46     6.4   875.1    0.00 
 322   13:30   0.41   44.6    43    2.4    52     5.8   875.0    0.00 
 322   13:40   0.40   44.4    43    2.8    17     5.3   874.8    0.00 
 322   13:50   0.39   44.6    42    3.0    28     4.6   874.7    0.00 
 322   14:00   0.37   45.6    40    1.8   159     5.0   874.6    0.00 
 322   14:10   0.35   46.2    39    1.4   176     4.0   874.5    0.00 
 322   14:20   0.34   46.2    39    1.8    30     4.9   874.4    0.00 
 322   14:30   0.32   45.8    40    1.8    28     3.5   874.4    0.00 
 322   14:40   0.30   47.3    39    0.9   164     2.8   874.4    0.00 
 322   14:50   0.28   46.7    40    2.5   124     4.9   874.3    0.00 
 322   15:00   0.19   46.2    39    1.2   152     4.1   874.3    0.00 
 322   15:10   0.11   44.7    41    0.9   218     2.3   874.2    0.00 
 322   15:20   0.24   46.2    40    0.9   190     2.4   874.1    0.00 
 322   15:30   0.23   47.2    38    1.0    84     3.9   874.1    0.00 
 322   15:40   0.17   46.0    37    1.4    60     3.2   874.1    0.00 
 322   15:50   0.05   44.8    38    2.2    79     4.2   874.1    0.00 
 322   16:00   0.02   43.7    40    1.2    63     2.2   874.0    0.00 
 322   16:10   0.02   42.1    44    0.1    61     1.1   873.8    0.00 
 322   16:20   0.02   41.6    44    0.7   300     1.2   873.6    0.00 
 322   16:30   0.01   41.0    45    0.6   300     1.6   873.6    0.00 
 322   16:40   0.01   39.4    51    1.8   291     2.3   873.4    0.00 
 322   16:50   0.00   38.6    55    2.1   287     2.9   873.2    0.00 
 322   17:00   0.00   37.7    60    1.4   280     2.6   873.1    0.00 
 322   17:10   0.00   36.3    66    2.1   246     2.9   873.2    0.00 
 322   17:20   0.00   35.9    69    2.5   236     3.1   873.1    0.00 
 322   17:30   0.00   35.2    71    3.0   251     3.4   873.1    0.00 
 322   17:40   0.00   34.1    73    2.9   254     3.6   873.2    0.00 
 322   17:50   0.00   33.8    75    2.8   251     3.9   873.3    0.00 
 322   18:00   0.00   33.3    77    0.7   255     2.3   873.2    0.00 
 322   18:10   0.00   32.2    80    1.9   312     5.8   873.2    0.00 
 322   18:20   0.00   33.9    83    1.6   267     2.0   873.1    0.00 
 322   18:30   0.00   32.7    81    0.6   247     2.3   873.2    0.00 
 322   18:40   0.00   31.0    83    2.8   177     3.9   873.1    0.00 
 322   18:50   0.00   31.1    84    3.4   192     4.0   873.2    0.00 
 322   19:00   0.00   30.1    84    0.8   158     2.6   873.3    0.00 
 322   19:10   0.00   28.8    85    2.1   131     2.9   873.3    0.00 
 322   19:20   0.00   29.5    84    1.9   169     3.1   873.3    0.00 
 322   19:30   0.00   29.5    84    1.8   207     2.4   873.4    0.00 
 322   19:40   0.00   29.5    85    2.0   211     2.8   873.3    0.00 
 322   19:50   0.00   29.2    85    1.7   226     2.4   873.3    0.00 
 322   20:00   0.00   28.8    86    0.3   210     1.8   873.3    0.00 
 322   20:10   0.00   30.1    86    2.0   215     2.6   873.4    0.00 
 322   20:20   0.00   30.8    86    1.8   248     2.3   873.5    0.00 
 322   20:30   0.00   31.5    85    0.2   250     1.5   873.5    0.00 
 322   20:40   0.00   29.2    84    2.9   128     3.9   873.4    0.00 
 322   20:50   0.00   27.9    87    0.8   147     2.8   873.5    0.00 
 322   21:00   0.00   28.0    88    0.0   149     0.8   873.5    0.00 
 322   21:10   0.00   28.1    88    0.0     0     0.0   873.5    0.00 
 322   21:20   0.00   27.8    89    1.0   128     2.0   873.4    0.00 
 322   21:30   0.00   27.5    90    2.1   161     3.3   873.4    0.00 
 322   21:40   0.00   27.8    90    0.9   175     3.1   873.4    0.00 
 322   21:50   0.00   27.9    91    0.9   177     1.4   873.5    0.00 
 322   22:00   0.00   28.3    91    0.4   178     1.3   873.5    0.00 
 322   22:10   0.00   28.1    90    1.2   158     2.6   873.4    0.00 
 322   22:20   0.00   27.7    91    1.6   133     2.6   873.5    0.00 
 322   22:30   0.00   27.1    90    0.0   133     1.1   873.5    0.00 
 322   22:40   0.00   26.7    91    0.0     0     0.0   873.6    0.00 
 322   22:50   0.00   27.3    92    0.0     0     0.0   873.6    0.00 
 322   23:00   0.00   27.6    92    1.0   182     2.0   873.5    0.00 
 322   23:10   0.00   27.3    92    1.1   182     1.7   873.4    0.00 
 322   23:20   0.00   26.9    92    0.0     0     0.0   873.4    0.00 
 322   23:30   0.00   25.8    92    0.3    39     1.7   873.4    0.00 
 322   23:40   0.00   25.7    93    0.0     0     0.0   873.4    0.00 
 322   23:50   0.00   26.1    93    0.0     0     0.0   873.4    0.00 
 323    0:00   0.00   26.1    93    0.2    39     0.9   873.4    0.00 
 323    0:10   0.00   26.9    94    0.2    39     1.0   873.4    0.00 
 323    0:20   0.00   25.0    92    0.2    39     1.0   873.5    0.00 
 323    0:30   0.00   24.5    93    0.1    64     1.5   873.3    0.00 
 323    0:40   0.00   24.9    94    0.3    64     1.8   873.3    0.00 
 323    0:50   0.00   25.8    95    0.0     0     0.0   873.2    0.00 
 323    1:00   0.00   25.0    93    0.0     0     0.0   873.2    0.00 
 323    1:10   0.00   25.3    95    0.0     0     0.0   873.1    0.00 
 323    1:20   0.00   23.3    93    0.0     0     0.0   873.1    0.00 
 323    1:30   0.00   23.2    95    0.0    64     0.4   873.0    0.00 
 323    1:40   0.00   23.6    95    0.2    64     0.7   872.9    0.00 
 323    1:50   0.00   22.5    94    0.0    64     0.6   872.9    0.00 
 323    2:00   0.00   21.4    94    0.2    64     1.1   872.8    0.00 
 323    2:10   0.00   21.2    95    0.0     0     0.0   872.8    0.00 
 323    2:20   0.00   22.0    96    0.0    64     0.5   872.7    0.00 
 323    2:30   0.00   22.2    96    0.4    64     0.9   872.7    0.00 
 323    2:40   0.00   21.2    94    0.9   138     1.5   872.6    0.00 
 323    2:50   0.00   20.6    95    0.2   152     0.9   872.7    0.00 
 323    3:00   0.00   20.7    95    0.0     0     0.0   872.6    0.00 
 323    3:10   0.00   19.4    94    0.0     0     0.0   872.9    0.00 
 323    3:20   0.00   20.0    95    0.0   152     0.7   872.8    0.00 
 323    3:30   0.00   20.3    96    1.2   164     2.3   872.9    0.00 
 323    3:40   0.00   18.4    94    2.0    55     3.5   872.8    0.00 

Return to Mason Valley Wildlife Refuge graphs page.


Western Regional Climate Center,wrcc@dri.edu